Waldo, Wisconsin
Current Conditions -  °F | °C
As of 6:14 PM on Monday 24 Nov 2014 (Local Time) from KSBM Reporting Station
Light Snow Light Snow  
Wind Chill: 16°   Ceiling: 1200
Heat Index: 30°   Visibility: 1mi
Dew Point: 27°   Wind: 25mph
Humidity: 88%   Direction: 260°W
Pressure: 29.44"   Gusts: 32mph
Location:  43.67°N, 87.95°W
Report Text: KSBM 250014Z AUTO 26022G28KT 1SM -SN BR VV012 M01/M03 A2944 RMK AO2 PK WND 28028/0005 P0000 T10111028
Loading
Personal Weather Stations






























Interactive Weather Map New forecast layout! Learn more

10-Day Weather Forecast

Advertisements
Track Severe Weather on mobile